Time;durP1;ratioP1;P1;durP2;ratioP2;P2;SDS_P1;SDS_P2;PMS_P1;PMS_P2;Temp;Humidity;BMP_temperature;BMP_pressure;BME280_temperature;BME280_humidity;BME280_pressure;Samples;Min_cycle;Max_cycle;Signal;HPM_P1;HPM_P2
2022/04/26 03:36:49;;;;;;;;;;;4.50;99.90;;;;;;5133371;27;20300;-73
2022/04/26 03:39:15;;;;;;;;;;;4.40;99.90;;;;;;5134206;27;19915;-73
2022/04/26 03:41:41;;;;;;;;;;;4.40;99.90;;;;;;5133367;27;19960;-73
2022/04/26 03:44:06;;;;;;;;;;;4.40;99.90;;;;;;5134190;27;19908;-73
2022/04/26 03:46:32;;;;;;;;;;;4.40;99.90;;;;;;5134036;27;19915;-73
2022/04/26 03:48:57;;;;;;;;;;;4.40;99.90;;;;;;5133569;27;19907;-73
2022/04/26 03:51:23;;;;;;;;;;;4.50;99.90;;;;;;5133453;27;20319;-73
2022/04/26 03:53:48;;;;;;;;;;;4.50;99.90;;;;;;5133069;27;19908;-73
2022/04/26 03:56:14;;;;;;;;;;;4.50;99.90;;;;;;5133678;27;19920;-73
2022/04/26 03:58:40;;;;;;;;;;;4.60;99.90;;;;;;5133372;27;19930;-73
2022/04/26 04:01:05;;;;;;;;;;;4.50;99.90;;;;;;5133565;28;19907;-73
2022/04/26 04:03:31;;;;;;;;;;;4.50;99.90;;;;;;5133938;28;19915;-73
2022/04/26 04:05:56;;;;;;;;;;;4.50;99.90;;;;;;5133178;28;20007;-73
2022/04/26 04:08:22;;;;;;;;;;;4.50;99.90;;;;;;5133751;28;19908;-73
2022/04/26 04:10:48;;;;;;;;;;;4.50;99.90;;;;;;5133038;28;19907;-73
2022/04/26 04:13:13;;;;;;;;;;;4.40;99.90;;;;;;5133868;28;19915;-73
2022/04/26 04:15:39;;;;;;;;;;;4.50;99.90;;;;;;5133086;28;19907;-73
2022/04/26 04:19:17;;;;;;;;;;;4.50;99.90;;;;;;5115095;28;19915;-73
2022/04/26 04:20:52;;;;;;;;;;;4.40;99.90;;;;;;5132846;28;19915;-73
2022/04/26 04:23:17;;;;;;;;;;;4.40;99.90;;;;;;5133568;28;19911;-73
2022/04/26 04:25:43;;;;;;;;;;;4.20;99.90;;;;;;5133209;28;20045;-73
2022/04/26 04:28:08;;;;;;;;;;;4.20;99.90;;;;;;5133319;28;19908;-73
2022/04/26 04:30:34;;;;;;;;;;;4.20;99.90;;;;;;5133421;28;19918;-73
2022/04/26 04:32:59;;;;;;;;;;;4.20;99.90;;;;;;5132853;28;20002;-73
2022/04/26 04:35:25;;;;;;;;;;;4.20;99.90;;;;;;5133443;28;19931;-73
2022/04/26 04:37:50;;;;;;;;;;;4.10;99.90;;;;;;5132649;28;19976;-73
2022/04/26 04:40:16;;;;;;;;;;;4.10;99.90;;;;;;5135667;27;19907;-73
2022/04/26 04:42:42;;;;;;;;;;;4.00;99.90;;;;;;5136754;27;20309;-73
2022/04/26 04:45:08;;;;;;;;;;;4.00;99.90;;;;;;5137186;27;19916;-72
2022/04/26 04:47:33;;;;;;;;;;;4.00;99.90;;;;;;5137408;27;19916;-73
2022/04/26 04:49:59;;;;;;;;;;;4.00;99.90;;;;;;5136846;27;19968;-73
2022/04/26 04:52:24;;;;;;;;;;;3.90;99.90;;;;;;5137635;27;19907;-73
2022/04/26 04:54:50;;;;;;;;;;;3.90;99.90;;;;;;5136433;27;19914;-73
2022/04/26 04:57:16;;;;;;;;;;;3.80;99.90;;;;;;5137344;27;19965;-73
2022/04/26 04:59:41;;;;;;;;;;;3.70;99.90;;;;;;5136586;27;19907;-73
2022/04/26 05:02:07;;;;;;;;;;;3.70;99.90;;;;;;5137328;27;20375;-73
2022/04/26 05:04:32;;;;;;;;;;;3.70;99.90;;;;;;5137347;27;19907;-73
2022/04/26 05:06:58;;;;;;;;;;;3.80;99.90;;;;;;5136130;27;20739;-74
2022/04/26 05:09:23;;;;;;;;;;;3.80;99.90;;;;;;5137125;27;19954;-73
2022/04/26 05:11:49;;;;;;;;;;;3.80;99.90;;;;;;5136414;27;19908;-73
2022/04/26 05:14:14;;;;;;;;;;;3.70;99.90;;;;;;5137334;27;19915;-73
2022/04/26 05:16:40;;;;;;;;;;;3.70;99.90;;;;;;5136375;27;19948;-74
2022/04/26 05:19:06;;;;;;;;;;;3.70;99.90;;;;;;5136516;27;19908;-73
2022/04/26 05:21:31;;;;;;;;;;;3.70;99.90;;;;;;5118348;27;20348;-73
2022/04/26 05:26:41;;;;;;;;;;;3.70;99.90;;;;;;5135932;27;19968;-73
2022/04/26 05:29:06;;;;;;;;;;;3.60;99.90;;;;;;5136016;27;20002;-72
2022/04/26 05:31:32;;;;;;;;;;;3.60;99.90;;;;;;5136121;27;19915;-74
2022/04/26 05:33:58;;;;;;;;;;;3.60;99.90;;;;;;5135406;27;19907;-73
2022/04/26 05:36:23;;;;;;;;;;;3.60;99.90;;;;;;5136093;27;20276;-74
2022/04/26 05:38:49;;;;;;;;;;;3.60;99.90;;;;;;5135387;27;20263;-73
2022/04/26 05:41:14;;;;;;;;;;;3.70;99.90;;;;;;5136427;27;19907;-73
2022/04/26 05:43:40;;;;;;;;;;;3.70;99.90;;;;;;5136334;27;20344;-73
2022/04/26 05:46:09;;;;;;;;;;;3.70;99.90;;;;;;5135349;27;20292;-73
2022/04/26 05:48:35;;;;;;;;;;;3.80;99.90;;;;;;5136027;27;19952;-74
2022/04/26 05:51:00;;;;;;;;;;;4.10;99.90;;;;;;5135162;27;19911;-75
2022/04/26 05:53:26;;;;;;;;;;;4.30;99.90;;;;;;5135830;27;19990;-75
2022/04/26 05:55:51;;;;;;;;;;;4.50;99.90;;;;;;5135310;27;19919;-74
2022/04/26 05:58:17;;;;;;;;;;;4.70;99.90;;;;;;5135942;27;20021;-75
2022/04/26 06:00:43;;;;;;;;;;;4.90;99.90;;;;;;5135884;27;19908;-74
2022/04/26 06:03:08;;;;;;;;;;;5.00;99.90;;;;;;5117226;27;19957;-75
2022/04/26 06:05:34;;;;;;;;;;;5.10;99.90;;;;;;5135085;27;19973;-74
2022/04/26 06:08:00;;;;;;;;;;;5.30;99.90;;;;;;5134605;27;19907;-74
2022/04/26 06:10:26;;;;;;;;;;;5.30;99.90;;;;;;5135447;27;19976;-75
2022/04/26 06:12:52;;;;;;;;;;;5.30;99.90;;;;;;5134926;27;19914;-74
2022/04/26 06:15:18;;;;;;;;;;;5.20;99.90;;;;;;5135352;27;19907;-75
2022/04/26 06:17:44;;;;;;;;;;;5.10;99.90;;;;;;5134869;27;19911;-75
2022/04/26 06:20:10;;;;;;;;;;;5.10;99.90;;;;;;5134992;27;19911;-75
2022/04/26 06:22:35;;;;;;;;;;;5.30;99.90;;;;;;5135269;27;20417;-75
2022/04/26 06:25:01;;;;;;;;;;;5.30;99.90;;;;;;5134057;27;19951;-74
2022/04/26 06:27:27;;;;;;;;;;;5.40;99.90;;;;;;5134938;27;19907;-75
2022/04/26 06:29:52;;;;;;;;;;;5.50;99.90;;;;;;5134362;27;19908;-75
2022/04/26 06:32:19;;;;;;;;;;;5.50;99.90;;;;;;5134903;27;19915;-74
2022/04/26 06:34:45;;;;;;;;;;;5.70;99.90;;;;;;5134390;27;20349;-74
2022/04/26 06:37:13;;;;;;;;;;;5.80;99.90;;;;;;5134503;27;19956;-75
2022/04/26 06:39:39;;;;;;;;;;;5.90;99.90;;;;;;5134635;27;19932;-74
2022/04/26 06:42:04;;;;;;;;;;;6.00;99.90;;;;;;5133791;27;19911;-75
2022/04/26 06:44:31;;;;;;;;;;;6.10;99.90;;;;;;5134706;27;19907;-74
2022/04/26 06:46:56;;;;;;;;;;;6.10;99.90;;;;;;5115608;27;20356;-75
2022/04/26 06:49:22;;;;;;;;;;;6.20;99.90;;;;;;5134461;27;19914;-74
2022/04/26 06:51:48;;;;;;;;;;;6.20;99.90;;;;;;5134548;27;19908;-74
2022/04/26 06:54:13;;;;;;;;;;;6.30;99.90;;;;;;5134651;27;19916;-74
2022/04/26 06:56:45;;;;;;;;;;;6.30;99.90;;;;;;5133695;27;19919;-75
2022/04/26 06:59:11;;;;;;;;;;;6.30;99.90;;;;;;5133874;27;19908;-75
2022/04/26 07:01:38;;;;;;;;;;;6.40;99.90;;;;;;5134048;27;19915;-74
2022/04/26 07:04:04;;;;;;;;;;;6.50;99.90;;;;;;5133254;27;19912;-74
2022/04/26 07:06:29;;;;;;;;;;;6.50;99.90;;;;;;5134227;27;20351;-75
2022/04/26 07:08:56;;;;;;;;;;;6.60;99.90;;;;;;5133379;27;19908;-75
2022/04/26 07:11:21;;;;;;;;;;;6.60;99.90;;;;;;5134037;27;19908;-74
2022/04/26 07:13:48;;;;;;;;;;;6.70;99.90;;;;;;5134014;27;20218;-75
2022/04/26 07:16:14;;;;;;;;;;;6.80;99.90;;;;;;5134285;27;19957;-74
2022/04/26 07:18:40;;;;;;;;;;;6.90;99.90;;;;;;5134122;27;19912;-74
2022/04/26 07:21:05;;;;;;;;;;;7.00;99.90;;;;;;5133259;27;19907;-74
2022/04/26 07:23:31;;;;;;;;;;;7.10;99.90;;;;;;5133707;27;19907;-74
2022/04/26 07:25:57;;;;;;;;;;;7.20;99.90;;;;;;5133347;27;20003;-74
2022/04/26 07:28:23;;;;;;;;;;;7.30;99.90;;;;;;5133985;27;19914;-75
2022/04/26 07:30:49;;;;;;;;;;;7.40;99.90;;;;;;5115498;27;20272;-74
2022/04/26 07:35:59;;;;;;;;;;;7.70;99.90;;;;;;5133365;27;19967;-74
2022/04/26 07:38:24;;;;;;;;;;;7.80;99.90;;;;;;5133711;27;20006;-75
2022/04/26 07:40:50;;;;;;;;;;;7.90;99.90;;;;;;5133362;27;19907;-75
2022/04/26 07:43:16;;;;;;;;;;;8.10;99.90;;;;;;5133110;27;19914;-75
2022/04/26 07:45:42;;;;;;;;;;;8.20;99.90;;;;;;5133317;27;19915;-74
2022/04/26 07:48:08;;;;;;;;;;;8.40;99.90;;;;;;5133002;27;19961;-74
2022/04/26 07:50:34;;;;;;;;;;;8.50;99.90;;;;;;5131057;27;19916;-74
2022/04/26 07:53:01;;;;;;;;;;;8.70;99.90;;;;;;5113013;28;20034;-74
2022/04/26 07:55:27;;;;;;;;;;;8.90;99.90;;;;;;5132513;27;19915;-74
2022/04/26 07:57:52;;;;;;;;;;;9.10;99.90;;;;;;5133042;27;19961;-75
2022/04/26 08:00:18;;;;;;;;;;;9.30;99.90;;;;;;5114421;28;19908;-74
2022/04/26 08:02:43;;;;;;;;;;;9.40;99.90;;;;;;5132233;28;19950;-74
2022/04/26 08:05:09;;;;;;;;;;;9.60;99.90;;;;;;5132602;28;19915;-73
2022/04/26 08:07:39;;;;;;;;;;;9.70;99.90;;;;;;5133488;28;20018;-75
2022/04/26 08:10:12;;;;;;;;;;;9.80;99.90;;;;;;5132875;28;19915;-76
2022/04/26 08:12:38;;;;;;;;;;;9.90;99.90;;;;;;5132249;28;20399;-76
2022/04/26 08:15:04;;;;;;;;;;;10.00;99.90;;;;;;5136167;27;19908;-76
2022/04/26 08:17:29;;;;;;;;;;;10.10;99.90;;;;;;5137850;27;19908;-76
2022/04/26 08:19:55;;;;;;;;;;;10.20;99.90;;;;;;5137302;27;19908;-76
2022/04/26 08:22:20;;;;;;;;;;;10.30;99.90;;;;;;5137558;27;20264;-76
2022/04/26 08:27:33;;;;;;;;;;;10.50;99.90;;;;;;5137813;27;19959;-76
2022/04/26 08:29:58;;;;;;;;;;;10.60;99.90;;;;;;5136898;27;19914;-76
2022/04/26 08:32:28;;;;;;;;;;;10.60;99.90;;;;;;5137489;27;19911;-76
2022/04/26 08:34:54;;;;;;;;;;;10.70;99.90;;;;;;5137382;27;20003;-76
2022/04/26 08:37:20;;;;;;;;;;;10.80;99.90;;;;;;5137136;27;19945;-76
2022/04/26 08:39:46;;;;;;;;;;;10.90;99.90;;;;;;5137345;27;19908;-76
2022/04/26 08:42:12;;;;;;;;;;;10.80;99.90;;;;;;5136740;27;19907;-76
2022/04/26 08:44:38;;;;;;;;;;;10.80;99.90;;;;;;5137171;27;19918;-76
2022/04/26 08:52:49;;;;;;;;;;;11.60;99.90;;;;;;5137120;27;19915;-74
2022/04/26 08:55:15;;;;;;;;;;;11.70;99.90;;;;;;5136275;27;19907;-75
2022/04/26 08:57:41;;;;;;;;;;;11.90;99.90;;;;;;5136828;27;20252;-74
2022/04/26 09:00:07;;;;;;;;;;;11.90;99.90;;;;;;5135945;27;19912;-77
2022/04/26 09:02:33;;;;;;;;;;;12.00;99.90;;;;;;5136680;27;19931;-74
2022/04/26 09:05:08;;;;;;;;;;;12.20;99.90;;;;;;5136212;27;20367;-76
2022/04/26 09:07:36;;;;;;;;;;;12.40;99.90;;;;;;5136790;27;20447;-76
2022/04/26 09:10:04;;;;;;;;;;;12.50;99.90;;;;;;5136258;27;19915;-75
2022/04/26 09:12:30;;;;;;;;;;;12.40;99.90;;;;;;5136621;27;19941;-76
2022/04/26 09:14:55;;;;;;;;;;;12.50;99.90;;;;;;5136444;27;19907;-76
2022/04/26 09:17:21;;;;;;;;;;;12.60;99.90;;;;;;5117621;27;19956;-77
2022/04/26 09:19:48;;;;;;;;;;;12.60;99.90;;;;;;5118258;27;19912;-74
2022/04/26 09:22:20;;;;;;;;;;;12.60;99.90;;;;;;5135986;27;19914;-75
2022/04/26 09:24:55;;;;;;;;;;;12.70;99.90;;;;;;5136085;27;19966;-75
2022/04/26 09:27:20;;;;;;;;;;;12.70;99.90;;;;;;5135491;27;20340;-75
2022/04/26 09:29:47;;;;;;;;;;;12.70;99.90;;;;;;5136333;27;19929;-75
2022/04/26 09:32:12;;;;;;;;;;;12.70;99.90;;;;;;5135770;27;19930;-76
2022/04/26 09:34:38;;;;;;;;;;;12.80;99.90;;;;;;5136092;27;20356;-75
2022/04/26 09:37:04;;;;;;;;;;;12.80;99.90;;;;;;5135700;27;19976;-74
2022/04/26 09:39:30;;;;;;;;;;;12.90;99.90;;;;;;5136089;27;19907;-76
2022/04/26 09:41:56;;;;;;;;;;;12.60;99.90;;;;;;5135869;27;19908;-75
2022/04/26 09:44:31;;;;;;;;;;;12.60;99.90;;;;;;5135342;27;19964;-75
2022/04/26 09:46:57;;;;;;;;;;;12.60;99.90;;;;;;5136427;27;19915;-76
2022/04/26 09:49:24;;;;;;;;;;;12.60;99.90;;;;;;5135704;27;19911;-75
2022/04/26 09:52:01;;;;;;;;;;;12.60;99.90;;;;;;5136077;27;19998;-75
2022/04/26 09:54:26;;;;;;;;;;;12.60;99.90;;;;;;5135653;27;19995;-76
2022/04/26 09:56:52;;;;;;;;;;;12.70;99.90;;;;;;5135808;27;19962;-76
2022/04/26 09:59:27;;;;;;;;;;;12.70;99.90;;;;;;5135022;27;20058;-76
2022/04/26 10:01:54;;;;;;;;;;;12.90;99.90;;;;;;5135313;27;19914;-76
2022/04/26 10:04:21;;;;;;;;;;;12.90;99.90;;;;;;5134872;27;20742;-76
2022/04/26 10:06:49;;;;;;;;;;;12.90;99.90;;;;;;5134995;27;20341;-76
2022/04/26 10:09:15;;;;;;;;;;;13.00;99.90;;;;;;5134883;27;20006;-77
2022/04/26 10:11:41;;;;;;;;;;;13.00;99.90;;;;;;5135299;27;19942;-76
2022/04/26 10:14:07;;;;;;;;;;;13.20;99.90;;;;;;5134852;27;19915;-76
2022/04/26 10:16:33;;;;;;;;;;;13.20;99.90;;;;;;5135236;27;19994;-76
2022/04/26 10:19:08;;;;;;;;;;;13.00;99.90;;;;;;5135271;27;19908;-75
2022/04/26 10:21:38;;;;;;;;;;;12.90;99.90;;;;;;5135093;27;19911;-75
2022/04/26 10:24:13;;;;;;;;;;;12.80;99.90;;;;;;5134513;27;19962;-75
2022/04/26 10:26:39;;;;;;;;;;;12.50;99.90;;;;;;5135229;27;20026;-76
2022/04/26 10:29:08;;;;;;;;;;;12.60;99.90;;;;;;5134779;27;19977;-75
2022/04/26 10:31:34;;;;;;;;;;;12.60;99.90;;;;;;5134919;27;19967;-76
2022/04/26 10:34:00;;;;;;;;;;;12.60;99.90;;;;;;5134648;27;20355;-75
2022/04/26 10:36:35;;;;;;;;;;;12.70;99.90;;;;;;5133606;27;19950;-76
2022/04/26 10:39:13;;;;;;;;;;;12.60;99.90;;;;;;5134264;27;20351;-75
2022/04/26 10:41:40;;;;;;;;;;;12.60;99.90;;;;;;5135060;27;19986;-75
2022/04/26 10:44:19;;;;;;;;;;;12.50;99.90;;;;;;5134363;27;19915;-76
2022/04/26 10:46:50;;;;;;;;;;;12.40;99.90;;;;;;5134968;27;20396;-76
2022/04/26 10:49:24;;;;;;;;;;;12.50;99.90;;;;;;5133964;27;19954;-76
2022/04/26 10:51:51;;;;;;;;;;;12.40;99.90;;;;;;5134527;27;19915;-76
2022/04/26 10:54:46;;;;;;;;;;;12.50;99.90;;;;;;5134255;27;19915;-76
2022/04/26 10:57:12;;;;;;;;;;;12.50;99.90;;;;;;5094642;28;19922;-76
2022/04/26 10:59:45;;;;;;;;;;;12.60;99.90;;;;;;5095822;28;20011;-76
2022/04/26 11:02:18;;;;;;;;;;;12.60;99.90;;;;;;5112976;28;19907;-76
2022/04/26 11:04:44;;;;;;;;;;;12.60;99.90;;;;;;5113606;28;19914;-76
2022/04/26 11:07:13;;;;;;;;;;;12.60;99.90;;;;;;5113784;28;19908;-76
2022/04/26 11:09:49;;;;;;;;;;;12.60;99.90;;;;;;5114214;28;19939;-76
2022/04/26 11:12:18;;;;;;;;;;;12.80;99.90;;;;;;5113228;28;19912;-76
2022/04/26 11:14:44;;;;;;;;;;;12.80;99.90;;;;;;5113622;28;20007;-76
2022/04/26 11:17:10;;;;;;;;;;;12.90;99.90;;;;;;5113673;28;19961;-76
2022/04/26 11:19:38;;;;;;;;;;;13.00;99.90;;;;;;5113845;28;20307;-76
2022/04/26 11:22:04;;;;;;;;;;;13.00;99.90;;;;;;5113468;28;19911;-75
2022/04/26 11:29:59;;;;;;;;;;;12.90;99.90;;;;;;5113190;28;19950;-77
2022/04/26 11:32:28;;;;;;;;;;;13.00;99.90;;;;;;5112875;28;19907;-77
2022/04/26 11:34:53;;;;;;;;;;;13.10;99.90;;;;;;5113399;28;19914;-76
2022/04/26 11:37:19;;;;;;;;;;;13.30;99.90;;;;;;5112853;28;19908;-75
2022/04/26 11:39:44;;;;;;;;;;;13.10;99.90;;;;;;5113768;28;19908;-75
2022/04/26 11:42:11;;;;;;;;;;;13.10;99.90;;;;;;5112237;28;19924;-75
2022/04/26 11:44:37;;;;;;;;;;;13.10;99.90;;;;;;5112714;28;19915;-76
2022/04/26 11:47:03;;;;;;;;;;;13.10;99.90;;;;;;5113003;28;19976;-75
2022/04/26 11:49:38;;;;;;;;;;;13.30;99.90;;;;;;5112162;28;20360;-77
2022/04/26 11:52:04;;;;;;;;;;;13.40;99.90;;;;;;5113263;28;20007;-77
2022/04/26 11:54:38;;;;;;;;;;;13.40;99.90;;;;;;5112511;28;20719;-76
2022/04/26 11:57:04;;;;;;;;;;;13.40;99.90;;;;;;5128209;27;19923;-76
2022/04/26 11:59:31;;;;;;;;;;;13.40;99.90;;;;;;5132999;27;19908;-76
2022/04/26 12:01:57;;;;;;;;;;;13.40;99.90;;;;;;5114804;28;19915;-76
2022/04/26 12:04:23;;;;;;;;;;;13.00;99.90;;;;;;5132586;28;19907;-76
2022/04/26 12:06:50;;;;;;;;;;;12.70;99.90;;;;;;5133275;28;19980;-76
2022/04/26 12:09:16;;;;;;;;;;;12.90;99.90;;;;;;5132210;27;19961;-76
2022/04/26 12:11:44;;;;;;;;;;;13.00;99.90;;;;;;5133052;27;19907;-76
2022/04/26 12:14:17;;;;;;;;;;;13.10;99.90;;;;;;5134072;28;19943;-75
2022/04/26 12:16:44;;;;;;;;;;;13.00;99.90;;;;;;5133005;28;19908;-77
2022/04/26 12:19:10;;;;;;;;;;;13.10;99.90;;;;;;5132660;28;20279;-75
2022/04/26 12:22:05;;;;;;;;;;;13.10;99.90;;;;;;5132901;28;19908;-76
2022/04/26 12:24:31;;;;;;;;;;;13.20;99.90;;;;;;5114828;28;20377;-76
2022/04/26 12:27:11;;;;;;;;;;;13.10;99.90;;;;;;5133087;28;19953;-76
2022/04/26 12:29:37;;;;;;;;;;;13.20;99.90;;;;;;5133042;28;19908;-77
2022/04/26 12:32:07;;;;;;;;;;;13.30;99.90;;;;;;5133259;28;20309;-77
2022/04/26 12:34:32;;;;;;;;;;;13.30;99.90;;;;;;5132215;28;20057;-76
2022/04/26 12:37:03;;;;;;;;;;;13.20;99.90;;;;;;5114735;28;20420;-76
2022/04/26 12:39:41;;;;;;;;;;;13.30;99.90;;;;;;5132644;28;20352;-76
2022/04/26 12:42:08;;;;;;;;;;;13.40;99.90;;;;;;5133036;28;19952;-76
2022/04/26 12:44:34;;;;;;;;;;;13.30;99.90;;;;;;5132706;28;19907;-76
2022/04/26 12:52:41;;;;;;;;;;;13.80;99.90;;;;;;5133179;28;19949;-77
2022/04/26 12:55:07;;;;;;;;;;;13.60;99.90;;;;;;5131868;27;19938;-76
2022/04/26 12:57:51;;;;;;;;;;;13.50;99.90;;;;;;5132889;28;20493;-76
2022/04/26 13:00:19;;;;;;;;;;;13.60;99.90;;;;;;5133298;27;19917;-75
2022/04/26 13:02:49;;;;;;;;;;;13.70;99.90;;;;;;5136679;27;19919;-75
2022/04/26 13:05:15;;;;;;;;;;;13.90;99.90;;;;;;5136278;27;19980;-75
2022/04/26 13:07:41;;;;;;;;;;;13.80;99.90;;;;;;5136713;27;20301;-75
2022/04/26 13:10:06;;;;;;;;;;;13.80;99.90;;;;;;5136614;27;19908;-75
2022/04/26 13:12:32;;;;;;;;;;;13.90;99.90;;;;;;5135907;27;19964;-75
2022/04/26 13:14:59;;;;;;;;;;;13.90;99.90;;;;;;5136444;27;19908;-76
2022/04/26 13:17:24;;;;;;;;;;;13.80;99.90;;;;;;5135898;27;19931;-75
2022/04/26 13:19:50;;;;;;;;;;;13.70;99.90;;;;;;5118140;27;19907;-76
2022/04/26 13:22:16;;;;;;;;;;;13.60;99.90;;;;;;5117740;27;19907;-76
2022/04/26 13:24:42;;;;;;;;;;;13.50;99.90;;;;;;5136862;27;19992;-77
2022/04/26 13:27:08;;;;;;;;;;;13.50;99.90;;;;;;5117963;27;20428;-77
2022/04/26 13:29:33;;;;;;;;;;;13.50;99.90;;;;;;5135723;27;19955;-77
2022/04/26 13:32:00;;;;;;;;;;;13.60;99.90;;;;;;5117954;27;19998;-78
2022/04/26 13:34:26;;;;;;;;;;;13.40;99.90;;;;;;5135698;27;19968;-77
2022/04/26 13:36:52;;;;;;;;;;;13.50;99.90;;;;;;5136204;27;19908;-77
2022/04/26 13:39:18;;;;;;;;;;;13.60;99.90;;;;;;5135688;27;19908;-77
2022/04/26 13:41:44;;;;;;;;;;;13.40;99.90;;;;;;5136354;27;20026;-77
2022/04/26 13:44:09;;;;;;;;;;;13.10;99.90;;;;;;5136070;27;20424;-76
2022/04/26 13:46:36;;;;;;;;;;;13.00;99.90;;;;;;5135498;27;19951;-77
2022/04/26 13:49:02;;;;;;;;;;;13.20;99.90;;;;;;5135995;27;20344;-76
2022/04/26 13:51:29;;;;;;;;;;;13.30;99.90;;;;;;5135116;27;20368;-77
2022/04/26 13:53:55;;;;;;;;;;;13.30;99.90;;;;;;5136176;27;19956;-77
2022/04/26 13:56:20;;;;;;;;;;;13.40;99.90;;;;;;5135358;27;19923;-76
2022/04/26 13:58:46;;;;;;;;;;;13.30;99.90;;;;;;5135954;27;20014;-77
2022/04/26 14:01:11;;;;;;;;;;;13.40;99.90;;;;;;5135962;27;20107;-77
2022/04/26 14:03:37;;;;;;;;;;;13.50;99.90;;;;;;5135375;27;20056;-76
2022/04/26 14:06:03;;;;;;;;;;;13.40;99.90;;;;;;5135710;27;19962;-76
2022/04/26 14:08:31;;;;;;;;;;;13.40;99.90;;;;;;5135195;27;19907;-76
2022/04/26 14:10:57;;;;;;;;;;;13.50;99.90;;;;;;5135530;27;19908;-75
2022/04/26 14:13:22;;;;;;;;;;;13.40;99.90;;;;;;5134617;27;19913;-77
2022/04/26 14:24:04;;;;;;;;;;;13.40;99.90;;;;;;5135270;27;20364;-77
2022/04/26 14:26:30;;;;;;;;;;;13.50;99.90;;;;;;5134932;27;19958;-76
2022/04/26 14:28:55;;;;;;;;;;;13.50;99.90;;;;;;5135313;27;20404;-76
2022/04/26 14:31:21;;;;;;;;;;;13.50;99.90;;;;;;5134885;27;19911;-77
2022/04/26 14:33:46;;;;;;;;;;;13.50;99.90;;;;;;5135279;27;19907;-77
2022/04/26 14:36:12;;;;;;;;;;;13.40;99.90;;;;;;5135272;27;19908;-75
2022/04/26 14:38:38;;;;;;;;;;;13.20;99.90;;;;;;5134528;27;20778;-74
2022/04/26 14:41:03;;;;;;;;;;;13.30;99.90;;;;;;5135021;27;19914;-75
2022/04/26 14:43:29;;;;;;;;;;;13.30;99.90;;;;;;5134376;27;20413;-77
2022/04/26 14:45:55;;;;;;;;;;;13.40;99.90;;;;;;5134696;27;20413;-75
2022/04/26 14:48:23;;;;;;;;;;;13.50;99.90;;;;;;5134171;27;19911;-75
2022/04/26 14:50:48;;;;;;;;;;;13.50;99.90;;;;;;5135290;27;20026;-75
2022/04/26 14:53:14;;;;;;;;;;;13.50;99.90;;;;;;5134478;27;19998;-75
2022/04/26 14:55:40;;;;;;;;;;;13.50;99.90;;;;;;5134066;27;19923;-76
2022/04/26 14:58:09;;;;;;;;;;;13.50;99.90;;;;;;5134648;27;20320;-76
2022/04/26 15:00:36;;;;;;;;;;;13.50;99.90;;;;;;5134000;27;19915;-76
2022/04/26 15:03:02;;;;;;;;;;;13.60;99.90;;;;;;5134269;27;19986;-76
2022/04/26 15:05:27;;;;;;;;;;;13.60;99.90;;;;;;5133701;27;19939;-76
2022/04/26 15:10:37;;;;;;;;;;;13.60;99.90;;;;;;5118030;27;20283;-76
2022/04/26 15:18:48;;;;;;;;;;;13.50;99.90;;;;;;5126311;27;19915;-77
2022/04/26 15:21:13;;;;;;;;;;;13.60;99.90;;;;;;5133805;27;20284;-77
2022/04/26 15:23:39;;;;;;;;;;;13.70;99.90;;;;;;5131995;27;19913;-77
2022/04/26 15:26:06;;;;;;;;;;;13.80;99.90;;;;;;5133551;27;19922;-77
2022/04/26 15:28:32;;;;;;;;;;;13.70;99.90;;;;;;5132607;27;20002;-77
2022/04/26 15:30:58;;;;;;;;;;;13.70;99.90;;;;;;5133497;27;20005;-77
2022/04/26 15:33:24;;;;;;;;;;;13.60;99.90;;;;;;5132822;27;20025;-77
2022/04/26 15:35:51;;;;;;;;;;;13.50;99.90;;;;;;5133338;27;19908;-77
2022/04/26 15:38:17;;;;;;;;;;;13.60;99.90;;;;;;5133404;27;19908;-77
2022/04/26 15:40:44;;;;;;;;;;;13.50;99.90;;;;;;5132578;27;19914;-77
2022/04/26 15:43:10;;;;;;;;;;;13.50;99.90;;;;;;5133480;27;19907;-78
2022/04/26 15:45:39;;;;;;;;;;;13.90;99.90;;;;;;5133031;27;19915;-77
2022/04/26 15:48:05;;;;;;;;;;;14.10;99.90;;;;;;5133060;27;19911;-78
2022/04/26 15:50:30;;;;;;;;;;;14.10;99.90;;;;;;5132695;27;19918;-78
2022/04/26 15:52:56;;;;;;;;;;;14.60;99.90;;;;;;5133302;27;19908;-77
2022/04/26 15:55:22;;;;;;;;;;;14.40;99.90;;;;;;5132888;27;19907;-77
2022/04/26 15:57:49;;;;;;;;;;;14.40;99.90;;;;;;5133136;27;19914;-77
2022/04/26 16:00:14;;;;;;;;;;;14.60;99.90;;;;;;5132847;27;20291;-77
2022/04/26 16:02:42;;;;;;;;;;;14.50;99.90;;;;;;5132517;27;20022;-77
2022/04/26 16:05:09;;;;;;;;;;;13.90;99.90;;;;;;5132852;28;20352;-77
2022/04/26 16:07:35;;;;;;;;;;;14.00;99.90;;;;;;5132358;28;20245;-78
2022/04/26 16:20:57;;;;;;;;;;;15.30;99.90;;;;;;5132278;28;19968;-77
2022/04/26 16:23:23;;;;;;;;;;;15.40;99.90;;;;;;5132948;28;19984;-77
2022/04/26 16:25:48;;;;;;;;;;;15.40;99.90;;;;;;5132911;28;19967;-76
2022/04/26 16:28:14;;;;;;;;;;;15.10;99.90;;;;;;5133547;28;19912;-77
2022/04/26 16:30:41;;;;;;;;;;;15.00;99.90;;;;;;5133165;28;20348;-77
2022/04/26 16:33:07;;;;;;;;;;;15.00;99.90;;;;;;5132874;28;20393;-77
2022/04/26 16:35:33;;;;;;;;;;;14.80;99.90;;;;;;5116692;27;19939;-77
2022/04/26 16:37:59;;;;;;;;;;;14.80;99.90;;;;;;5137606;27;19907;-77
2022/04/26 16:40:24;;;;;;;;;;;14.80;99.90;;;;;;5136984;27;20264;-77
2022/04/26 16:42:50;;;;;;;;;;;15.10;99.90;;;;;;5137393;27;19913;-77
2022/04/26 16:45:17;;;;;;;;;;;15.30;99.90;;;;;;5137026;27;19939;-76
2022/04/26 16:47:43;;;;;;;;;;;15.40;99.90;;;;;;5118185;27;20645;-77
2022/04/26 16:50:09;;;;;;;;;;;15.40;99.90;;;;;;5137078;27;19913;-77
2022/04/26 16:52:35;;;;;;;;;;;15.40;99.90;;;;;;5136572;27;19950;-77
2022/04/26 16:55:00;;;;;;;;;;;15.50;99.90;;;;;;5137173;27;19946;-77
2022/04/26 16:57:28;;;;;;;;;;;15.50;99.90;;;;;;5117756;27;20001;-77
2022/04/26 16:59:56;;;;;;;;;;;15.60;99.90;;;;;;5136454;27;19912;-77
2022/04/26 17:02:23;;;;;;;;;;;15.60;99.90;;;;;;5136996;27;20272;-77
2022/04/26 17:04:48;;;;;;;;;;;15.20;99.90;;;;;;5136425;27;19911;-77
2022/04/26 17:07:14;;;;;;;;;;;14.70;99.90;;;;;;5136609;27;19918;-77
2022/04/26 17:09:39;;;;;;;;;;;14.30;99.90;;;;;;5117150;27;19915;-77
2022/04/26 17:12:05;;;;;;;;;;;14.10;99.90;;;;;;5136760;27;20340;-77
2022/04/26 17:14:32;;;;;;;;;;;13.90;99.90;;;;;;5135883;27;19908;-77
2022/04/26 17:16:58;;;;;;;;;;;13.80;99.90;;;;;;5136918;27;19911;-77
2022/04/26 17:19:23;;;;;;;;;;;13.60;99.90;;;;;;5128749;27;19907;-77
2022/04/26 17:21:49;;;;;;;;;;;13.30;99.90;;;;;;5156173;27;19966;-76
2022/04/26 17:26:59;;;;;;;;;;;13.10;99.90;;;;;;5156085;27;19964;-77
2022/04/26 17:29:25;;;;;;;;;;;13.10;99.90;;;;;;5155788;27;19911;-77
2022/04/26 17:31:51;;;;;;;;;;;13.10;99.90;;;;;;5155801;27;19907;-77
2022/04/26 17:34:20;;;;;;;;;;;12.90;99.90;;;;;;5137800;27;20348;-77
2022/04/26 17:36:46;;;;;;;;;;;12.80;99.90;;;;;;5155823;27;19963;-76
2022/04/26 17:39:12;;;;;;;;;;;12.80;99.90;;;;;;5156654;27;19956;-77
2022/04/26 17:41:40;;;;;;;;;;;12.80;99.90;;;;;;5155664;27;20027;-77
2022/04/26 17:44:07;;;;;;;;;;;12.70;99.90;;;;;;5155992;27;19907;-76
2022/04/26 17:46:33;;;;;;;;;;;12.60;99.90;;;;;;5155204;27;19921;-76
2022/04/26 17:48:58;;;;;;;;;;;12.60;99.90;;;;;;5156222;27;19994;-77
2022/04/26 17:51:24;;;;;;;;;;;12.50;99.90;;;;;;5156156;27;19914;-77
2022/04/26 17:56:35;;;;;;;;;;;12.40;99.90;;;;;;5155612;27;20316;-77
2022/04/26 17:59:02;;;;;;;;;;;12.30;99.90;;;;;;5155842;27;19914;-76
2022/04/26 18:01:27;;;;;;;;;;;12.20;99.90;;;;;;5155504;27;19950;-77
2022/04/26 18:03:53;;;;;;;;;;;12.10;99.90;;;;;;5155872;27;19959;-77
2022/04/26 18:06:19;;;;;;;;;;;12.10;99.90;;;;;;5155838;27;20476;-77
2022/04/26 18:08:45;;;;;;;;;;;12.00;99.90;;;;;;5154917;27;19908;-76
2022/04/26 18:11:11;;;;;;;;;;;12.00;99.90;;;;;;5155845;27;19907;-77
2022/04/26 18:13:37;;;;;;;;;;;11.90;99.90;;;;;;5155155;27;19914;-77
2022/04/26 18:16:04;;;;;;;;;;;11.90;99.90;;;;;;5155593;27;20287;-76
2022/04/26 18:18:31;;;;;;;;;;;11.90;99.90;;;;;;5120601;27;20263;-76
2022/04/26 18:20:58;;;;;;;;;;;12.00;99.90;;;;;;5137788;27;20259;-77
2022/04/26 18:23:24;;;;;;;;;;;11.90;99.90;;;;;;5155176;27;19907;-77
2022/04/26 18:28:34;;;;;;;;;;;11.80;99.90;;;;;;5154995;27;20126;-77
2022/04/26 18:30:59;;;;;;;;;;;11.80;99.90;;;;;;5155509;27;20009;-77
2022/04/26 18:33:25;;;;;;;;;;;11.80;99.90;;;;;;5155387;27;19907;-77
2022/04/26 18:35:51;;;;;;;;;;;11.70;99.90;;;;;;5155234;27;19917;-77
2022/04/26 18:38:17;;;;;;;;;;;11.70;99.90;;;;;;5136591;27;19907;-77
2022/04/26 18:40:43;;;;;;;;;;;11.70;99.90;;;;;;5154650;27;19993;-77
2022/04/26 18:43:09;;;;;;;;;;;11.70;99.90;;;;;;5155228;27;19965;-77
2022/04/26 18:45:34;;;;;;;;;;;11.70;99.90;;;;;;5154517;27;20400;-77
2022/04/26 18:48:00;;;;;;;;;;;11.70;99.90;;;;;;5155264;27;19914;-77
2022/04/26 18:50:26;;;;;;;;;;;11.70;99.90;;;;;;5155031;27;20110;-77
2022/04/26 18:52:52;;;;;;;;;;;11.70;99.90;;;;;;5153876;27;19960;-77
2022/04/26 18:55:18;;;;;;;;;;;11.60;99.90;;;;;;5154825;27;19913;-77